createdAt,value
2018-04-18T00:01:11.295Z,81.63
2018-04-18T00:03:38.749Z,81.69
2018-04-18T00:06:06.238Z,81.39
2018-04-18T00:08:33.697Z,81.37
2018-04-18T00:11:01.189Z,82.32
2018-04-18T00:13:28.654Z,82.32
2018-04-18T00:15:56.137Z,83.17
2018-04-18T00:18:23.598Z,83.13
2018-04-18T00:20:51.082Z,83.24
2018-04-18T00:23:18.540Z,83.49
2018-04-18T00:25:46.018Z,83.50
2018-04-18T00:28:13.483Z,83.68
2018-04-18T00:30:42.881Z,83.95
2018-04-18T00:33:10.337Z,84.27
2018-04-18T00:35:37.830Z,84.10
2018-04-18T00:38:05.288Z,83.22
2018-04-18T00:40:32.761Z,83.38
2018-04-18T00:43:00.227Z,83.86
2018-04-18T00:45:27.712Z,83.87
2018-04-18T00:47:55.171Z,83.87
2018-04-18T00:50:22.649Z,83.92
2018-04-18T00:52:50.102Z,83.51
2018-04-18T00:55:17.573Z,83.31
2018-04-18T00:57:45.030Z,83.65
2018-04-18T01:00:12.506Z,83.18
2018-04-18T01:02:39.969Z,82.47
2018-04-18T01:05:07.493Z,82.47
2018-04-18T01:07:34.950Z,82.47
2018-04-18T01:10:02.440Z,82.48
2018-04-18T01:12:29.902Z,82.63
2018-04-18T01:14:57.378Z,82.70
2018-04-18T01:17:24.847Z,82.69
2018-04-18T01:19:52.329Z,82.15
2018-04-18T01:22:19.795Z,83.15
2018-04-18T01:24:47.289Z,83.22
2018-04-18T01:27:14.765Z,82.82
2018-04-18T01:29:42.252Z,82.65
2018-04-18T01:32:09.721Z,82.65
2018-04-18T01:34:37.222Z,83.19
2018-04-18T01:37:04.679Z,83.27
2018-04-18T01:39:32.147Z,82.52
2018-04-18T01:41:59.634Z,82.34
2018-04-18T01:44:27.102Z,82.31
2018-04-18T01:46:54.590Z,83.01
2018-04-18T01:49:23.553Z,82.93
2018-04-18T01:51:51.035Z,83.23
2018-04-18T01:54:18.501Z,83.36
2018-04-18T01:56:45.997Z,83.13
2018-04-18T01:59:13.517Z,82.75
2018-04-18T02:01:40.968Z,82.11
2018-04-18T02:04:08.433Z,81.94
2018-04-18T02:06:35.913Z,82.06
2018-04-18T02:09:03.374Z,81.63
2018-04-18T02:11:30.861Z,82.04
2018-04-18T02:13:58.326Z,82.19
2018-04-18T02:16:25.809Z,81.22
2018-04-18T02:18:53.269Z,81.29
2018-04-18T02:21:20.745Z,81.05
2018-04-18T02:23:48.214Z,80.80
2018-04-18T02:26:15.686Z,80.99
2018-04-18T02:28:43.145Z,80.64
2018-04-18T02:31:10.646Z,81.13
2018-04-18T02:33:38.113Z,81.19
2018-04-18T02:36:05.590Z,82.06
2018-04-18T02:38:33.052Z,82.73
2018-04-18T02:41:00.521Z,83.22
2018-04-18T02:43:27.974Z,83.58
2018-04-18T02:45:55.445Z,84.25
2018-04-18T02:48:22.898Z,84.32
2018-04-18T02:50:50.369Z,83.35
2018-04-18T02:53:17.822Z,83.98
2018-04-18T02:55:45.299Z,84.44
2018-04-18T02:58:12.758Z,84.72
2018-04-18T03:00:40.234Z,84.70
2018-04-18T03:03:07.714Z,84.19
2018-04-18T03:05:35.252Z,83.75
2018-04-18T03:08:02.665Z,83.34
2018-04-18T03:10:30.148Z,83.30
2018-04-18T03:12:57.601Z,83.07
2018-04-18T03:15:25.077Z,83.42
2018-04-18T03:17:52.525Z,83.62
2018-04-18T03:20:19.997Z,83.78
2018-04-18T03:22:47.453Z,84.02
2018-04-18T03:25:14.931Z,83.66
2018-04-18T03:27:42.387Z,86.50
2018-04-18T03:30:09.842Z,85.23
2018-04-18T03:32:37.314Z,84.45
2018-04-18T03:35:04.769Z,84.32
2018-04-18T03:37:32.243Z,84.15
2018-04-18T03:39:59.697Z,84.13
2018-04-18T03:42:27.173Z,84.29
2018-04-18T03:44:54.625Z,84.44
2018-04-18T03:47:22.106Z,84.12
2018-04-18T03:49:49.561Z,85.03
2018-04-18T03:52:17.095Z,85.33
2018-04-18T03:54:44.525Z,85.87
2018-04-18T03:57:12.002Z,86.60
2018-04-18T03:59:39.462Z,86.86
2018-04-18T04:02:06.939Z,86.43
2018-04-18T04:04:34.390Z,86.87
2018-04-18T04:07:01.866Z,87.14
2018-04-18T04:09:29.336Z,87.38
2018-04-18T04:11:56.816Z,87.51
2018-04-18T04:14:24.289Z,86.93
2018-04-18T04:17:03.603Z,85.55
2018-04-18T04:19:42.749Z,85.69
2018-04-18T04:22:21.835Z,85.69
2018-04-18T04:24:49.435Z,85.14
2018-04-18T04:27:17.580Z,85.61
2018-04-18T04:29:45.038Z,85.65
2018-04-18T04:32:12.509Z,86.01
2018-04-18T04:34:40.833Z,86.54
2018-04-18T04:37:08.300Z,86.90
2018-04-18T04:39:35.754Z,87.00
2018-04-18T04:42:03.235Z,86.82
2018-04-18T04:44:30.692Z,86.67
2018-04-18T04:46:58.165Z,86.73
2018-04-18T04:49:25.614Z,86.68
2018-04-18T04:51:53.102Z,86.42
2018-04-18T04:54:20.574Z,86.38
2018-04-18T04:56:48.051Z,86.87
2018-04-18T04:59:15.501Z,86.90
2018-04-18T05:01:42.982Z,86.30
2018-04-18T05:04:10.438Z,85.92
2018-04-18T05:06:37.924Z,86.16
2018-04-18T05:09:05.385Z,85.76
2018-04-18T05:11:32.870Z,86.37
2018-04-18T05:14:00.331Z,85.48
2018-04-18T05:16:27.967Z,85.51
2018-04-18T05:18:55.425Z,86.31
2018-04-18T05:21:22.949Z,86.51
2018-04-18T05:23:50.509Z,85.61
2018-04-18T05:26:18.005Z,85.29
2018-04-18T05:28:45.468Z,85.10
2018-04-18T05:31:12.923Z,84.84
2018-04-18T05:33:40.398Z,83.88
2018-04-18T05:36:07.858Z,83.64
2018-04-18T05:38:35.333Z,83.85
2018-04-18T05:41:02.798Z,84.01
2018-04-18T05:43:30.273Z,83.96
2018-04-18T05:45:57.729Z,83.73
2018-04-18T05:48:25.203Z,83.59
2018-04-18T05:50:52.666Z,83.95
2018-04-18T05:53:20.154Z,84.12
2018-04-18T05:55:47.613Z,83.99
2018-04-18T05:58:15.118Z,83.87
2018-04-18T06:00:42.574Z,83.32
2018-04-18T06:03:10.050Z,83.22
2018-04-18T06:05:37.513Z,83.94
2018-04-18T06:08:04.989Z,83.73
2018-04-18T06:10:32.449Z,83.04
2018-04-18T06:12:59.930Z,82.36
2018-04-18T06:15:28.665Z,81.91
2018-04-18T06:17:56.162Z,81.66
2018-04-18T06:20:23.625Z,81.52
2018-04-18T06:22:51.110Z,81.24
2018-04-18T06:25:18.923Z,80.67
2018-04-18T06:27:46.407Z,79.78
2018-04-18T06:30:13.882Z,79.37
2018-04-18T06:32:41.371Z,78.66
2018-04-18T06:35:08.841Z,77.27
2018-04-18T06:37:36.332Z,75.76
2018-04-18T06:40:03.862Z,75.14
2018-04-18T06:42:31.298Z,76.11
2018-04-18T06:44:58.762Z,73.81
2018-04-18T06:47:26.244Z,72.76
2018-04-18T06:49:53.705Z,72.38
2018-04-18T06:52:21.182Z,72.50
2018-04-18T06:54:48.645Z,72.94
2018-04-18T06:57:16.130Z,72.53
2018-04-18T06:59:43.590Z,73.66
2018-04-18T07:02:11.073Z,71.18
2018-04-18T07:04:38.536Z,69.78
2018-04-18T07:07:06.026Z,70.51
2018-04-18T07:09:33.489Z,70.11
2018-04-18T07:12:00.958Z,69.47
2018-04-18T07:14:28.437Z,68.91
2018-04-18T07:16:55.916Z,68.72
2018-04-18T07:19:23.397Z,67.46
2018-04-18T07:21:50.869Z,68.91
2018-04-18T07:24:18.354Z,66.83
2018-04-18T07:26:45.813Z,64.65
2018-04-18T07:29:13.294Z,64.17
2018-04-18T07:31:40.757Z,66.14
2018-04-18T07:34:08.238Z,64.30
2018-04-18T07:36:35.702Z,63.27
2018-04-18T07:39:03.200Z,63.24
2018-04-18T07:41:30.665Z,63.45
2018-04-18T07:43:58.151Z,62.39
2018-04-18T07:46:25.613Z,62.82
2018-04-18T07:48:53.091Z,62.25
2018-04-18T07:51:20.553Z,62.11
2018-04-18T07:53:48.030Z,63.51
2018-04-18T07:56:15.490Z,61.14
2018-04-18T07:58:42.970Z,61.21
2018-04-18T08:01:10.434Z,60.90
2018-04-18T08:03:37.913Z,60.04
2018-04-18T08:06:05.378Z,58.74
2018-04-18T08:08:32.901Z,58.78
2018-04-18T08:11:00.324Z,60.17
2018-04-18T08:13:27.859Z,58.38
2018-04-18T08:15:55.329Z,59.31
2018-04-18T08:18:22.820Z,59.65
2018-04-18T08:20:50.288Z,59.15
2018-04-18T08:23:17.770Z,61.06
2018-04-18T08:25:45.241Z,60.80
2018-04-18T08:28:12.739Z,62.06
2018-04-18T08:30:40.202Z,61.08
2018-04-18T08:33:07.689Z,61.09
2018-04-18T08:35:35.149Z,59.75
2018-04-18T08:38:02.640Z,61.23
2018-04-18T08:40:30.105Z,60.32
2018-04-18T08:42:57.626Z,61.48
2018-04-18T08:45:25.136Z,59.26
2018-04-18T08:47:52.614Z,58.29
2018-04-18T08:50:20.091Z,59.58
2018-04-18T08:52:47.574Z,57.42
2018-04-18T08:55:15.042Z,57.75
2018-04-18T08:57:42.521Z,59.64
2018-04-18T09:00:10.002Z,58.23
2018-04-18T09:02:37.477Z,58.13
2018-04-18T09:05:04.961Z,58.06
2018-04-18T09:07:32.485Z,56.90
2018-04-18T09:09:59.970Z,57.18
2018-04-18T09:12:27.434Z,56.52
2018-04-18T09:14:54.913Z,57.56
2018-04-18T09:17:22.381Z,58.73
2018-04-18T09:19:49.877Z,57.73
2018-04-18T09:22:17.350Z,58.37
2018-04-18T09:24:44.834Z,59.21
2018-04-18T09:27:12.301Z,58.26
2018-04-18T09:29:39.786Z,58.25
2018-04-18T09:32:07.254Z,58.16
2018-04-18T09:34:34.740Z,57.38
2018-04-18T09:37:02.207Z,57.79
2018-04-18T09:39:29.685Z,57.82
2018-04-18T09:41:57.158Z,58.29
2018-04-18T09:44:24.651Z,58.40
2018-04-18T09:46:52.117Z,57.84
2018-04-18T09:49:19.615Z,58.87
2018-04-18T09:51:47.078Z,60.44
2018-04-18T09:54:14.565Z,60.81
2018-04-18T09:56:42.038Z,60.53
2018-04-18T09:59:09.543Z,58.74
2018-04-18T10:01:42.847Z,57.57
2018-04-18T10:04:10.324Z,56.93
2018-04-18T10:06:37.792Z,55.58
2018-04-18T10:09:06.201Z,56.84
2018-04-18T10:11:33.693Z,55.89
2018-04-18T10:14:01.182Z,56.38
2018-04-18T10:16:28.637Z,55.12
2018-04-18T10:18:56.113Z,54.69
2018-04-18T10:21:23.570Z,55.52
2018-04-18T10:23:51.055Z,54.99
2018-04-18T10:26:18.527Z,55.17
2018-04-18T10:28:46.014Z,52.05
2018-04-18T10:31:13.478Z,51.73
2018-04-18T10:33:40.957Z,51.19
2018-04-18T10:36:08.430Z,51.17
2018-04-18T10:38:35.914Z,50.83
2018-04-18T10:41:03.397Z,49.96
2018-04-18T10:43:30.989Z,50.80
2018-04-18T10:45:58.459Z,50.89
2018-04-18T10:48:25.914Z,49.17
2018-04-18T10:50:53.405Z,48.09
2018-04-18T10:53:20.861Z,48.95
2018-04-18T10:55:48.345Z,48.27
2018-04-18T10:58:15.798Z,47.18
2018-04-18T11:00:43.272Z,48.25
2018-04-18T11:03:10.741Z,48.28
2018-04-18T11:05:38.234Z,48.90
2018-04-18T11:08:05.696Z,47.63
2018-04-18T11:10:33.186Z,50.37
2018-04-18T11:13:00.656Z,46.83
2018-04-18T11:15:28.139Z,48.07
2018-04-18T11:17:55.606Z,48.68
2018-04-18T11:20:23.093Z,46.58
2018-04-18T11:22:50.555Z,46.88
2018-04-18T11:25:18.034Z,48.44
2018-04-18T11:27:45.505Z,47.13
2018-04-18T11:30:12.996Z,46.48
2018-04-18T11:32:40.464Z,45.77
2018-04-18T11:35:07.955Z,46.07
2018-04-18T11:37:35.414Z,45.83
2018-04-18T11:40:02.901Z,44.57
2018-04-18T11:42:30.358Z,44.81
2018-04-18T11:44:57.929Z,45.27
2018-04-18T11:47:25.386Z,44.70
2018-04-18T11:49:52.862Z,46.23
2018-04-18T11:52:20.320Z,44.42
2018-04-18T11:54:47.798Z,45.24
2018-04-18T11:57:15.261Z,43.82
2018-04-18T11:59:42.741Z,43.74
2018-04-18T12:02:10.224Z,41.29
2018-04-18T12:04:37.713Z,43.09
2018-04-18T12:07:05.169Z,42.06
2018-04-18T12:09:32.641Z,40.81
2018-04-18T12:12:00.098Z,39.08
2018-04-18T12:14:27.589Z,41.69
2018-04-18T12:16:55.050Z,41.16
2018-04-18T12:19:22.530Z,39.69
2018-04-18T12:21:50.007Z,39.07
2018-04-18T12:24:17.489Z,37.86
2018-04-18T12:26:44.961Z,38.66
2018-04-18T12:29:12.426Z,39.74
2018-04-18T12:31:39.905Z,38.85
2018-04-18T12:34:07.374Z,37.16
2018-04-18T12:36:34.860Z,37.20
2018-04-18T12:39:02.313Z,36.37
2018-04-18T12:41:29.802Z,37.37
2018-04-18T12:43:57.274Z,37.28
2018-04-18T12:46:24.762Z,36.90
2018-04-18T12:48:52.222Z,36.88
2018-04-18T12:51:19.701Z,35.54
2018-04-18T12:53:47.170Z,35.08
2018-04-18T12:56:14.658Z,33.05
2018-04-18T12:58:42.133Z,34.20
2018-04-18T13:01:09.610Z,33.84
2018-04-18T13:03:37.074Z,32.08
2018-04-18T13:06:04.553Z,35.46
2018-04-18T13:08:32.019Z,31.45
2018-04-18T13:10:59.501Z,32.00
2018-04-18T13:13:26.955Z,31.66
2018-04-18T13:15:54.429Z,32.57
2018-04-18T13:18:21.937Z,31.45
2018-04-18T13:20:49.381Z,29.02
2018-04-18T13:23:16.833Z,24.25
2018-04-18T13:25:45.157Z,25.23
2018-04-18T13:28:12.619Z,23.38
2018-04-18T13:30:40.103Z,20.07
2018-04-18T13:33:07.602Z,20.45
2018-04-18T13:35:35.070Z,20.97
2018-04-18T13:38:02.539Z,19.63
2018-04-18T13:40:30.017Z,20.09
2018-04-18T13:42:57.478Z,20.91
2018-04-18T13:45:24.953Z,20.67
2018-04-18T13:47:52.417Z,19.95
2018-04-18T13:50:19.893Z,19.20
2018-04-18T13:52:47.374Z,19.10
2018-04-18T13:55:14.858Z,21.52
2018-04-18T13:57:42.317Z,20.79
2018-04-18T14:00:09.802Z,22.44
2018-04-18T14:02:37.258Z,22.72
2018-04-18T14:05:04.747Z,22.71
2018-04-18T14:07:32.206Z,19.97
2018-04-18T14:09:59.682Z,20.26
2018-04-18T14:12:27.150Z,20.29
2018-04-18T14:14:54.615Z,19.38
2018-04-18T14:17:22.104Z,20.16
2018-04-18T14:19:49.591Z,21.98
2018-04-18T14:22:17.069Z,22.90
2018-04-18T14:24:44.538Z,21.09
2018-04-18T14:27:12.017Z,19.84
2018-04-18T14:29:39.482Z,20.14
2018-04-18T14:32:06.991Z,19.17
2018-04-18T14:34:34.449Z,19.23
2018-04-18T14:37:02.063Z,17.47
2018-04-18T14:39:29.517Z,15.96
2018-04-18T14:41:57.017Z,19.45
2018-04-18T14:44:24.473Z,17.56
2018-04-18T14:46:51.958Z,17.31
2018-04-18T14:49:19.442Z,16.56
2018-04-18T14:51:46.929Z,19.94
2018-04-18T14:54:14.397Z,19.93
2018-04-18T14:56:41.886Z,19.50
2018-04-18T14:59:09.355Z,20.50
2018-04-18T15:01:36.837Z,22.18
2018-04-18T15:04:04.301Z,20.28
2018-04-18T15:06:31.789Z,21.45
2018-04-18T15:08:59.261Z,19.38
2018-04-18T15:11:26.763Z,20.39
2018-04-18T15:13:54.225Z,20.41
2018-04-18T15:16:21.737Z,21.25
2018-04-18T15:18:49.191Z,19.35
2018-04-18T15:21:16.905Z,22.41
2018-04-18T15:23:44.376Z,21.71
2018-04-18T15:26:11.857Z,21.70
2018-04-18T15:28:39.325Z,21.71
2018-04-18T15:31:06.824Z,20.62
2018-04-18T15:33:34.300Z,19.14
2018-04-18T15:36:01.777Z,18.77
2018-04-18T15:38:29.243Z,18.25
2018-04-18T15:40:56.730Z,21.16
2018-04-18T15:43:24.195Z,20.99
2018-04-18T15:45:51.779Z,20.19
2018-04-18T15:48:19.252Z,19.39
2018-04-18T15:50:46.746Z,19.09
2018-04-18T15:53:14.228Z,19.60
2018-04-18T15:55:41.725Z,20.05
2018-04-18T15:58:09.215Z,21.64
2018-04-18T16:00:36.706Z,21.46
2018-04-18T16:03:04.190Z,20.75
2018-04-18T16:05:31.658Z,20.47
2018-04-18T16:07:59.158Z,21.02
2018-04-18T16:10:26.644Z,22.53
2018-04-18T16:12:54.129Z,20.68
2018-04-18T16:15:21.610Z,20.05
2018-04-18T16:17:49.151Z,21.38
2018-04-18T16:20:16.630Z,21.30
2018-04-18T16:22:44.126Z,23.17
2018-04-18T16:25:11.609Z,22.04
2018-04-18T16:27:39.117Z,21.37
2018-04-18T16:30:18.425Z,22.69
2018-04-18T16:32:45.931Z,20.99
2018-04-18T16:35:13.413Z,24.79
2018-04-18T16:37:40.905Z,25.20
2018-04-18T16:40:08.635Z,22.91
2018-04-18T16:42:36.122Z,23.49
2018-04-18T16:45:03.593Z,26.51
2018-04-18T16:47:31.093Z,28.06
2018-04-18T16:49:58.585Z,30.72
2018-04-18T16:52:26.090Z,32.03
2018-04-18T16:54:53.552Z,33.50
2018-04-18T16:57:21.034Z,35.14
2018-04-18T16:59:48.503Z,32.87
2018-04-18T17:02:15.986Z,33.72
2018-04-18T17:04:43.470Z,34.81
2018-04-18T17:07:10.963Z,36.20
2018-04-18T17:09:38.426Z,35.84
2018-04-18T17:12:05.919Z,37.05
2018-04-18T17:14:33.398Z,36.51
2018-04-18T17:17:01.142Z,36.65
2018-04-18T17:19:28.622Z,35.46
2018-04-18T17:21:56.198Z,35.61
2018-04-18T17:24:23.666Z,36.12
2018-04-18T17:26:51.166Z,36.43
2018-04-18T17:29:18.646Z,37.02
2018-04-18T17:31:46.138Z,37.52
2018-04-18T17:34:13.891Z,38.30
2018-04-18T17:36:41.407Z,39.03
2018-04-18T17:39:09.107Z,38.90
2018-04-18T17:41:36.591Z,39.04
2018-04-18T17:44:04.534Z,40.15
2018-04-18T17:46:32.029Z,41.22
2018-04-18T17:48:59.494Z,41.92
2018-04-18T17:51:26.985Z,43.25
2018-04-18T17:53:54.458Z,43.98
2018-04-18T17:56:21.954Z,44.17
2018-04-18T17:58:49.421Z,43.73
2018-04-18T18:01:16.889Z,43.38
2018-04-18T18:03:44.376Z,43.62
2018-04-18T18:06:11.858Z,43.55
2018-04-18T18:08:39.347Z,43.92
2018-04-18T18:11:06.835Z,42.65
2018-04-18T18:13:34.352Z,43.49
2018-04-18T18:16:02.296Z,44.74
2018-04-18T18:18:29.786Z,45.77
2018-04-18T18:20:57.253Z,46.77
2018-04-18T18:23:24.754Z,50.42
2018-04-18T18:25:52.229Z,52.18
2018-04-18T18:28:19.976Z,51.79
2018-04-18T18:30:47.453Z,52.32
2018-04-18T18:33:14.950Z,52.54
2018-04-18T18:35:42.459Z,52.34
2018-04-18T18:38:09.964Z,52.93
2018-04-18T18:40:37.434Z,51.11
2018-04-18T18:43:04.965Z,48.62
2018-04-18T18:45:32.426Z,48.34
2018-04-18T18:47:59.918Z,48.79
2018-04-18T18:50:27.381Z,48.28
2018-04-18T18:52:55.256Z,48.38
2018-04-18T18:55:22.735Z,49.55
2018-04-18T18:57:50.238Z,49.92
2018-04-18T19:00:17.714Z,50.29
2018-04-18T19:02:45.210Z,50.43
2018-04-18T19:05:12.689Z,50.07
2018-04-18T19:07:40.511Z,50.64
2018-04-18T19:10:07.989Z,49.62
2018-04-18T19:12:35.483Z,48.38
2018-04-18T19:15:02.957Z,48.94
2018-04-18T19:17:30.487Z,48.15
2018-04-18T19:19:57.954Z,48.01
2018-04-18T19:22:25.447Z,47.88
2018-04-18T19:24:52.922Z,48.04
2018-04-18T19:27:20.406Z,48.38
2018-04-18T19:29:47.898Z,48.36
2018-04-18T19:32:15.405Z,48.17
2018-04-18T19:34:42.884Z,48.06
2018-04-18T19:37:10.815Z,48.11
2018-04-18T19:39:38.273Z,47.85
2018-04-18T19:42:05.773Z,47.84
2018-04-18T19:44:33.266Z,48.35
2018-04-18T19:47:00.782Z,47.67
2018-04-18T19:49:28.241Z,46.67
2018-04-18T19:51:56.373Z,45.74
2018-04-18T19:54:24.089Z,46.50
2018-04-18T19:56:51.553Z,47.63
2018-04-18T19:59:19.063Z,48.18
2018-04-18T20:01:46.534Z,49.64
2018-04-18T20:04:14.022Z,50.14
2018-04-18T20:06:41.502Z,51.20
2018-04-18T20:09:08.989Z,51.99
2018-04-18T20:11:36.712Z,51.98
2018-04-18T20:14:04.226Z,51.69
2018-04-18T20:16:32.595Z,49.86
2018-04-18T20:19:00.073Z,49.64
2018-04-18T20:21:27.574Z,49.44
2018-04-18T20:23:55.058Z,48.27
2018-04-18T20:26:22.592Z,48.66
2018-04-18T20:28:50.085Z,48.80
2018-04-18T20:31:17.664Z,49.34
2018-04-18T20:33:45.166Z,49.35
2018-04-18T20:36:12.637Z,49.50
2018-04-18T20:38:40.170Z,48.67
2018-04-18T20:41:07.641Z,49.90
2018-04-18T20:43:35.138Z,50.67
2018-04-18T20:46:02.622Z,50.12
2018-04-18T20:48:30.123Z,51.03
2018-04-18T20:50:57.590Z,52.46
2018-04-18T20:53:25.085Z,55.10
2018-04-18T20:55:52.559Z,57.05
2018-04-18T20:58:20.061Z,58.39
2018-04-18T21:00:47.562Z,59.93
2018-04-18T21:03:15.422Z,61.00
2018-04-18T21:05:43.117Z,61.72
2018-04-18T21:08:10.626Z,62.94
2018-04-18T21:10:38.101Z,62.59
2018-04-18T21:13:05.590Z,63.31
2018-04-18T21:15:33.057Z,62.42
2018-04-18T21:18:00.557Z,62.65
2018-04-18T21:20:28.015Z,65.10
2018-04-18T21:22:55.509Z,67.21
2018-04-18T21:25:23.009Z,69.05
2018-04-18T21:27:50.507Z,68.32
2018-04-18T21:30:17.972Z,67.92
2018-04-18T21:32:45.475Z,68.66
2018-04-18T21:35:12.939Z,67.98
2018-04-18T21:37:40.417Z,68.59
2018-04-18T21:40:07.881Z,68.56
2018-04-18T21:42:35.353Z,68.38
2018-04-18T21:45:02.846Z,67.63
2018-04-18T21:47:30.777Z,67.83
2018-04-18T21:49:58.273Z,68.60
2018-04-18T21:52:25.750Z,68.93
2018-04-18T21:57:19.993Z,67.96
2018-04-18T21:59:47.710Z,67.75
2018-04-18T22:02:15.170Z,68.72
2018-04-18T22:04:42.780Z,68.30
2018-04-18T22:07:10.263Z,67.99
2018-04-18T22:09:37.755Z,68.86
2018-04-18T22:12:05.214Z,69.85
2018-04-18T22:14:32.693Z,69.74
2018-04-18T22:17:00.179Z,70.27
2018-04-18T22:19:27.676Z,70.70
2018-04-18T22:21:55.154Z,71.36
2018-04-18T22:24:22.640Z,71.49
2018-04-18T22:26:50.097Z,71.77
2018-04-18T22:29:17.579Z,71.14
2018-04-18T22:31:45.038Z,70.96
2018-04-18T22:34:12.517Z,70.88
2018-04-18T22:36:39.978Z,70.66
2018-04-18T22:39:07.453Z,71.94
2018-04-18T22:41:34.937Z,71.32
2018-04-18T22:44:02.420Z,70.12
2018-04-18T22:46:29.878Z,70.30
2018-04-18T22:48:57.364Z,70.03
2018-04-18T22:51:25.053Z,69.88
2018-04-18T22:53:52.531Z,70.28
2018-04-18T22:56:20.021Z,70.20
2018-04-18T22:58:47.503Z,70.26
2018-04-18T23:01:14.990Z,71.03
2018-04-18T23:03:42.477Z,70.73
2018-04-18T23:06:09.951Z,71.18
2018-04-18T23:08:37.442Z,71.46
2018-04-18T23:11:04.904Z,71.27
2018-04-18T23:13:32.386Z,72.10
2018-04-18T23:15:59.837Z,74.69
2018-04-18T23:18:27.317Z,76.01
2018-04-18T23:20:54.790Z,76.37
2018-04-18T23:23:22.281Z,75.91
2018-04-18T23:25:49.746Z,75.90
2018-04-18T23:28:17.242Z,75.76
2018-04-18T23:30:44.705Z,75.62
2018-04-18T23:33:12.175Z,75.58
2018-04-18T23:35:39.657Z,75.69
2018-04-18T23:38:07.123Z,75.18
2018-04-18T23:40:34.610Z,75.18
2018-04-18T23:43:02.072Z,75.02
2018-04-18T23:45:29.545Z,74.51
2018-04-18T23:47:56.996Z,74.69
2018-04-18T23:50:24.489Z,74.72
2018-04-18T23:52:51.945Z,74.73
2018-04-18T23:55:19.424Z,74.57
2018-04-18T23:57:46.877Z,74.52
